createdAt,value
2023-04-13T00:01:35.612Z,11.50
2023-04-13T00:04:31.355Z,11.80
2023-04-13T00:07:28.404Z,11.00
2023-04-13T00:10:22.680Z,12.20
2023-04-13T00:13:25.040Z,11.90
2023-04-13T00:16:21.414Z,12.60
2023-04-13T00:19:14.402Z,13.00
2023-04-13T00:22:09.861Z,11.90
2023-04-13T00:25:02.419Z,12.30
2023-04-13T00:27:55.118Z,12.30
2023-04-13T00:30:48.818Z,13.10
2023-04-13T00:33:41.873Z,13.10
2023-04-13T00:36:34.692Z,12.50
2023-04-13T00:39:28.084Z,11.90
2023-04-13T00:42:15.437Z,12.90
2023-04-13T00:45:12.226Z,13.60
2023-04-13T00:48:00.836Z,14.00
2023-04-13T00:50:53.715Z,13.00
2023-04-13T00:53:46.590Z,12.80
2023-04-13T00:56:39.310Z,13.10
2023-04-13T00:59:36.337Z,12.30
2023-04-13T01:02:30.002Z,13.40
2023-04-13T01:05:17.796Z,13.10
2023-04-13T01:08:12.493Z,12.90
2023-04-13T01:11:08.756Z,12.90
2023-04-13T01:14:12.533Z,12.30
2023-04-13T01:17:11.552Z,12.80
2023-04-13T01:20:11.003Z,13.30
2023-04-13T01:23:09.632Z,12.60
2023-04-13T01:26:09.157Z,11.70
2023-04-13T01:29:01.727Z,13.30
2023-04-13T01:32:37.988Z,13.70
2023-04-13T01:35:32.280Z,13.90
2023-04-13T01:38:27.472Z,13.40
2023-04-13T01:41:27.096Z,12.90
2023-04-13T01:44:21.381Z,15.20
2023-04-13T01:47:22.985Z,13.50
2023-04-13T01:50:36.061Z,12.30
2023-04-13T01:53:33.191Z,12.80
2023-04-13T01:56:29.859Z,13.30
2023-04-13T01:59:22.783Z,13.60
2023-04-13T02:02:17.063Z,12.20
2023-04-13T02:05:10.952Z,12.70
2023-04-13T02:08:08.617Z,12.20
2023-04-13T02:11:02.214Z,12.60
2023-04-13T02:13:57.712Z,12.40
2023-04-13T02:16:52.589Z,12.90
2023-04-13T02:19:46.326Z,12.30
2023-04-13T02:22:41.613Z,12.40
2023-04-13T02:25:34.174Z,12.70
2023-04-13T02:28:27.950Z,12.50
2023-04-13T02:31:23.696Z,12.80
2023-04-13T02:34:16.649Z,11.80
2023-04-13T02:37:02.638Z,14.20
2023-04-13T02:39:55.861Z,12.50
2023-04-13T02:42:48.780Z,13.50
2023-04-13T02:45:41.953Z,10.90
2023-04-13T02:48:34.418Z,12.70
2023-04-13T02:51:28.227Z,13.00
2023-04-13T02:54:21.467Z,12.60
2023-04-13T02:57:14.719Z,13.50
2023-04-13T03:00:11.582Z,13.90
2023-04-13T03:03:04.749Z,13.60
2023-04-13T03:05:57.920Z,12.70
2023-04-13T03:08:55.042Z,12.30
2023-04-13T03:11:50.100Z,11.90
2023-04-13T03:14:42.737Z,11.60
2023-04-13T03:17:40.570Z,11.00
2023-04-13T03:20:36.528Z,13.00
2023-04-13T03:23:29.050Z,11.70
2023-04-13T03:26:27.940Z,11.00
2023-04-13T03:29:22.122Z,9.00
2023-04-13T03:32:15.171Z,9.30
2023-04-13T03:35:08.357Z,9.80
2023-04-13T03:38:01.163Z,11.00
2023-04-13T03:41:01.522Z,11.60
2023-04-13T03:47:03.927Z,10.00
2023-04-13T03:49:57.603Z,10.30
2023-04-13T03:52:43.210Z,11.20
2023-04-13T03:55:38.237Z,11.00
2023-04-13T03:58:32.288Z,11.20
2023-04-13T04:01:27.245Z,12.20
2023-04-13T04:04:21.680Z,10.80
2023-04-13T04:07:14.653Z,12.00
2023-04-13T04:10:29.292Z,11.80
2023-04-13T04:13:24.854Z,11.60
2023-04-13T04:16:17.500Z,12.90
2023-04-13T04:19:13.209Z,13.90
2023-04-13T04:22:07.336Z,12.40
2023-04-13T04:25:04.950Z,13.50
2023-04-13T04:27:58.425Z,13.90
2023-04-13T04:30:54.651Z,13.40
2023-04-13T04:33:47.568Z,15.00
2023-04-13T04:40:58.012Z,14.00
2023-04-13T04:43:51.010Z,13.30
2023-04-13T04:46:44.185Z,14.20
2023-04-13T04:49:37.444Z,13.80
2023-04-13T04:52:33.187Z,16.10
2023-04-13T04:55:26.666Z,15.60
2023-04-13T04:58:20.798Z,15.70
2023-04-13T05:01:03.765Z,15.60
2023-04-13T05:03:56.579Z,16.80
2023-04-13T05:07:10.756Z,15.70
2023-04-13T05:10:07.334Z,15.50
2023-04-13T05:12:59.958Z,16.30
2023-04-13T05:15:55.209Z,16.90
2023-04-13T05:18:50.262Z,18.50
2023-04-13T05:21:43.255Z,17.70
2023-04-13T05:24:36.168Z,19.70
2023-04-13T05:27:28.685Z,17.50
2023-04-13T05:30:23.514Z,17.50
2023-04-13T05:33:17.308Z,18.90
2023-04-13T05:36:14.853Z,19.70
2023-04-13T05:42:52.564Z,19.30
2023-04-13T05:45:45.272Z,18.60
2023-04-13T05:49:06.589Z,17.60
2023-04-13T05:52:01.216Z,17.00
2023-04-13T05:54:54.147Z,16.70
2023-04-13T05:57:48.524Z,15.30
2023-04-13T06:00:41.484Z,16.50
2023-04-13T06:03:35.478Z,17.10
2023-04-13T06:06:31.248Z,14.50
2023-04-13T06:09:25.274Z,14.70
2023-04-13T06:12:28.589Z,11.70
2023-04-13T06:15:24.679Z,13.40
2023-04-13T06:18:17.729Z,13.90
2023-04-13T06:21:11.189Z,15.70
2023-04-13T06:24:17.819Z,13.30
2023-04-13T06:27:10.588Z,12.10
2023-04-13T06:30:04.197Z,14.30
2023-04-13T06:32:56.945Z,18.90
2023-04-13T06:35:53.163Z,16.30
2023-04-13T06:38:46.280Z,14.30
2023-04-13T06:41:39.387Z,15.60
2023-04-13T06:44:49.712Z,15.60
2023-04-13T06:47:46.125Z,11.60
2023-04-13T06:50:41.338Z,13.90
2023-04-13T06:53:36.974Z,16.40
2023-04-13T06:57:02.241Z,16.50
2023-04-13T06:59:59.424Z,15.30
2023-04-13T07:02:52.171Z,12.20
2023-04-13T07:05:45.513Z,14.60
2023-04-13T07:08:38.503Z,12.00
2023-04-13T07:11:34.754Z,11.70
2023-04-13T07:14:21.106Z,12.70
2023-04-13T07:17:14.368Z,12.50
2023-04-13T07:20:08.555Z,12.70
2023-04-13T07:23:21.826Z,14.20
2023-04-13T07:26:18.577Z,12.60
2023-04-13T07:29:13.970Z,12.20
2023-04-13T07:32:08.322Z,13.40
2023-04-13T07:35:02.275Z,12.20
2023-04-13T07:37:55.186Z,13.40
2023-04-13T07:40:48.298Z,12.20
2023-04-13T07:43:42.466Z,10.10
2023-04-13T07:46:53.933Z,10.20
2023-04-13T07:49:27.029Z,11.30
2023-04-13T07:52:22.321Z,10.10
2023-04-13T07:55:14.993Z,10.80
2023-04-13T07:58:09.652Z,10.00
2023-04-13T08:01:22.227Z,10.30
2023-04-13T08:04:16.316Z,10.00
2023-04-13T08:07:09.068Z,9.10
2023-04-13T08:10:04.413Z,9.10
2023-04-13T08:12:56.521Z,9.00
2023-04-13T08:15:49.425Z,8.60
2023-04-13T08:18:42.595Z,8.60
2023-04-13T08:21:28.572Z,7.90
2023-04-13T08:24:13.692Z,8.60
2023-04-13T08:27:07.658Z,8.00
2023-04-13T08:30:02.291Z,8.10
2023-04-13T08:32:55.381Z,9.10
2023-04-13T08:35:52.509Z,8.40
2023-04-13T08:38:39.012Z,8.70
2023-04-13T08:41:39.839Z,9.60
2023-04-13T08:44:40.236Z,9.50
2023-04-13T08:47:32.883Z,8.90
2023-04-13T08:50:47.906Z,9.20
2023-04-13T08:53:40.344Z,9.90
2023-04-13T08:56:44.356Z,8.70
2023-04-13T09:03:11.632Z,8.40
2023-04-13T09:06:10.413Z,8.70
2023-04-13T09:08:59.561Z,8.70
2023-04-13T09:12:09.186Z,7.90
2023-04-13T09:15:03.358Z,8.50
2023-04-13T09:17:56.570Z,8.70
2023-04-13T09:20:59.857Z,8.60
2023-04-13T09:23:59.408Z,7.10
2023-04-13T09:26:55.139Z,7.60
2023-04-13T09:29:53.875Z,7.80
2023-04-13T09:32:46.565Z,6.30
2023-04-13T09:35:39.190Z,5.90
2023-04-13T09:38:34.849Z,6.40
2023-04-13T09:41:33.656Z,6.20
2023-04-13T09:47:22.513Z,6.50
2023-04-13T09:50:28.396Z,6.10
2023-04-13T09:53:25.881Z,6.90
2023-04-13T09:56:20.359Z,7.00
2023-04-13T09:59:13.778Z,7.30
2023-04-13T10:02:07.055Z,6.40
2023-04-13T10:05:01.646Z,6.60
2023-04-13T10:07:47.432Z,5.80
2023-04-13T10:10:41.207Z,5.50
2023-04-13T10:13:42.934Z,6.70
2023-04-13T10:16:57.155Z,6.60
2023-04-13T10:19:52.836Z,5.00
2023-04-13T10:22:40.796Z,4.50
2023-04-13T10:25:57.794Z,4.60
2023-04-13T10:28:50.295Z,4.70
2023-04-13T10:31:43.039Z,5.20
2023-04-13T10:34:38.529Z,4.90
2023-04-13T10:37:34.385Z,4.70
2023-04-13T10:40:27.425Z,5.10
2023-04-13T10:43:32.561Z,4.90
2023-04-13T10:46:14.207Z,5.20
2023-04-13T10:49:08.454Z,5.40
2023-04-13T10:52:00.996Z,5.00
2023-04-13T10:54:55.178Z,4.50
2023-04-13T10:57:47.709Z,3.90
2023-04-13T11:00:46.022Z,4.40
2023-04-13T11:03:44.915Z,4.80
2023-04-13T11:06:42.979Z,4.80
2023-04-13T11:09:36.043Z,4.10
2023-04-13T11:12:28.542Z,4.40
2023-04-13T11:15:28.092Z,4.50
2023-04-13T11:18:29.140Z,4.90
2023-04-13T11:21:23.256Z,4.00
2023-04-13T11:24:37.709Z,4.30
2023-04-13T11:27:30.113Z,4.40
2023-04-13T11:30:26.154Z,4.20
2023-04-13T11:33:27.067Z,4.10
2023-04-13T11:36:20.665Z,3.60
2023-04-13T11:39:14.912Z,3.40
2023-04-13T11:42:11.510Z,3.70
2023-04-13T11:44:56.770Z,3.50
2023-04-13T11:47:50.911Z,5.10
2023-04-13T11:50:44.032Z,3.50
2023-04-13T11:53:38.911Z,3.50
2023-04-13T11:56:47.778Z,3.40
2023-04-13T11:59:55.967Z,3.30
2023-04-13T12:03:01.106Z,3.10
2023-04-13T12:06:03.472Z,3.60
2023-04-13T12:09:10.076Z,3.40
2023-04-13T12:15:25.118Z,3.30
2023-04-13T12:18:34.288Z,3.60
2023-04-13T12:21:26.888Z,3.70
2023-04-13T12:24:20.239Z,3.10
2023-04-13T12:27:17.961Z,3.30
2023-04-13T12:30:19.612Z,3.40
2023-04-13T12:33:12.479Z,3.60
2023-04-13T12:36:07.170Z,3.20
2023-04-13T12:38:59.316Z,2.90
2023-04-13T12:41:57.285Z,3.50
2023-04-13T12:44:50.685Z,3.60
2023-04-13T12:47:44.375Z,3.10
2023-04-13T12:50:36.075Z,2.90
2023-04-13T12:53:32.577Z,2.60
2023-04-13T12:56:33.656Z,3.30
2023-04-13T12:59:29.746Z,3.10
2023-04-13T13:02:25.214Z,3.30
2023-04-13T13:05:19.042Z,2.60
2023-04-13T13:08:12.416Z,3.60
2023-04-13T13:11:05.325Z,3.90
2023-04-13T13:14:02.763Z,4.00
2023-04-13T13:16:51.415Z,3.50
2023-04-13T13:19:34.397Z,2.80
2023-04-13T13:22:10.485Z,3.40
2023-04-13T13:25:04.010Z,3.70
2023-04-13T13:28:05.192Z,4.50
2023-04-13T13:30:31.317Z,3.50
2023-04-13T13:33:03.942Z,2.60
2023-04-13T13:35:36.424Z,3.40
2023-04-13T13:38:08.826Z,3.00
2023-04-13T13:40:41.351Z,3.70
2023-04-13T13:43:14.128Z,3.30
2023-04-13T13:45:46.429Z,3.10
2023-04-13T13:48:19.137Z,3.30
2023-04-13T13:50:58.545Z,3.10
2023-04-13T13:53:31.827Z,2.50
2023-04-13T13:56:06.140Z,2.40
2023-04-13T13:58:38.515Z,3.10
2023-04-13T14:01:11.784Z,2.90
2023-04-13T14:03:44.501Z,2.60
2023-04-13T14:06:17.004Z,2.90
2023-04-13T14:08:49.616Z,3.00
2023-04-13T14:11:24.579Z,2.50
2023-04-13T14:13:57.094Z,2.80
2023-04-13T14:16:29.221Z,3.30
2023-04-13T14:19:02.129Z,3.10
2023-04-13T14:21:34.560Z,2.80
2023-04-13T14:24:07.239Z,2.90
2023-04-13T14:26:40.480Z,2.90
2023-04-13T14:29:12.787Z,3.10
2023-04-13T14:31:44.932Z,2.60
2023-04-13T14:34:17.115Z,2.90
2023-04-13T14:36:51.128Z,2.30
2023-04-13T14:39:28.307Z,2.20
2023-04-13T14:42:00.474Z,2.40
2023-04-13T14:44:32.584Z,2.40
2023-04-13T14:47:08.360Z,2.90
2023-04-13T14:49:41.175Z,1.80
2023-04-13T14:52:14.787Z,2.30
2023-04-13T14:54:47.411Z,2.00
2023-04-13T14:57:19.451Z,2.20
2023-04-13T14:59:53.565Z,2.00
2023-04-13T15:02:28.208Z,1.90
2023-04-13T15:05:00.928Z,2.00
2023-04-13T15:07:33.021Z,2.30
2023-04-13T15:10:07.465Z,2.20
2023-04-13T15:12:40.987Z,2.20
2023-04-13T15:15:14.221Z,2.30
2023-04-13T15:17:46.392Z,1.90
2023-04-13T15:20:18.569Z,2.00
2023-04-13T15:22:50.563Z,2.40
2023-04-13T15:25:23.240Z,2.30
2023-04-13T15:27:57.760Z,2.40
2023-04-13T15:30:31.847Z,2.00
2023-04-13T15:33:04.824Z,2.30
2023-04-13T15:35:38.091Z,2.50
2023-04-13T15:38:10.410Z,2.60
2023-04-13T15:40:43.496Z,2.50
2023-04-13T15:43:15.496Z,2.10
2023-04-13T15:45:48.626Z,2.40
2023-04-13T15:48:20.741Z,2.20
2023-04-13T15:51:02.052Z,2.70
2023-04-13T15:53:34.139Z,2.30
2023-04-13T15:56:08.670Z,2.10
2023-04-13T15:58:40.802Z,2.20
2023-04-13T16:01:14.380Z,2.10
2023-04-13T16:03:46.809Z,2.40
2023-04-13T16:06:20.176Z,2.10
2023-04-13T16:08:57.090Z,2.10
2023-04-13T16:11:34.111Z,2.00
2023-04-13T16:14:07.784Z,2.50
2023-04-13T16:16:46.898Z,2.50
2023-04-13T16:19:19.472Z,2.50
2023-04-13T16:21:53.163Z,2.60
2023-04-13T16:24:25.317Z,2.30
2023-04-13T16:26:57.573Z,2.50
2023-04-13T16:29:30.070Z,2.00
2023-04-13T16:32:03.021Z,2.20
2023-04-13T16:34:35.510Z,2.80
2023-04-13T16:37:07.816Z,2.30
2023-04-13T16:39:40.505Z,2.10
2023-04-13T16:42:12.761Z,2.40
2023-04-13T16:44:44.792Z,2.30
2023-04-13T16:47:17.637Z,2.60
2023-04-13T16:49:49.808Z,2.20
2023-04-13T16:52:23.258Z,2.70
2023-04-13T16:54:55.509Z,2.60
2023-04-13T16:57:30.781Z,2.50
2023-04-13T17:00:07.982Z,2.30
2023-04-13T17:02:42.077Z,2.90
2023-04-13T17:05:15.140Z,3.80
2023-04-13T17:07:48.348Z,3.60
2023-04-13T17:10:20.808Z,3.40
2023-04-13T17:12:54.375Z,3.00
2023-04-13T17:15:27.246Z,3.10
2023-04-13T17:17:59.621Z,3.20
2023-04-13T17:20:31.714Z,3.30
2023-04-13T17:23:03.868Z,3.20
2023-04-13T17:25:41.190Z,3.10
2023-04-13T17:28:13.348Z,2.80
2023-04-13T17:30:45.835Z,3.10
2023-04-13T17:33:19.185Z,3.30
2023-04-13T17:35:55.889Z,3.90
2023-04-13T17:38:28.203Z,3.60
2023-04-13T17:41:00.546Z,4.90
2023-04-13T17:43:33.402Z,5.80
2023-04-13T17:46:08.554Z,6.70
2023-04-13T17:48:42.095Z,6.30
2023-04-13T17:51:14.124Z,5.70
2023-04-13T17:53:46.443Z,6.20
2023-04-13T17:56:19.660Z,5.20
2023-04-13T17:58:52.063Z,4.90
2023-04-13T18:01:25.982Z,5.60
2023-04-13T18:04:02.722Z,4.60
2023-04-13T18:06:34.847Z,4.50
2023-04-13T18:09:07.185Z,4.10
2023-04-13T18:11:41.968Z,5.00
2023-04-13T18:14:16.057Z,5.00
2023-04-13T18:16:48.251Z,5.70
2023-04-13T18:19:20.624Z,5.70
2023-04-13T18:21:56.874Z,5.30
2023-04-13T18:24:29.160Z,5.80
2023-04-13T18:29:57.416Z,5.20
2023-04-13T18:32:29.489Z,4.80
2023-04-13T18:35:01.530Z,5.70
2023-04-13T18:37:35.525Z,5.10
2023-04-13T18:40:10.026Z,5.40
2023-04-13T18:42:42.337Z,5.30
2023-04-13T18:45:14.892Z,6.40
2023-04-13T18:47:46.955Z,5.40
2023-04-13T18:50:19.285Z,5.60
2023-04-13T18:52:51.410Z,5.40
2023-04-13T18:55:26.911Z,5.10
2023-04-13T18:57:59.020Z,5.00
2023-04-13T19:00:32.270Z,5.40
2023-04-13T19:03:04.312Z,5.00
2023-04-13T19:05:37.116Z,5.20
2023-04-13T19:08:10.069Z,4.30
2023-04-13T19:10:42.890Z,4.90
2023-04-13T19:13:17.174Z,5.60
2023-04-13T19:15:50.019Z,5.40
2023-04-13T19:18:23.900Z,6.00
2023-04-13T19:20:57.235Z,6.60
2023-04-13T19:23:29.499Z,6.30
2023-04-13T19:26:01.950Z,6.40
2023-04-13T19:28:34.172Z,6.90
2023-04-13T19:31:06.818Z,6.80
2023-04-13T19:33:38.850Z,6.30
2023-04-13T19:36:12.027Z,6.50
2023-04-13T19:38:45.314Z,7.60
2023-04-13T19:41:17.590Z,7.70
2023-04-13T19:43:49.574Z,7.10
2023-04-13T19:46:23.031Z,7.70
2023-04-13T19:48:55.073Z,8.50
2023-04-13T19:51:28.836Z,7.80
2023-04-13T19:54:03.151Z,8.40
2023-04-13T19:56:35.943Z,7.70
2023-04-13T19:59:10.023Z,8.10
2023-04-13T20:01:45.497Z,8.10
2023-04-13T20:04:18.382Z,8.90
2023-04-13T20:06:50.673Z,8.90
2023-04-13T20:09:24.783Z,8.90
2023-04-13T20:11:56.949Z,9.40
2023-04-13T20:14:28.927Z,9.50
2023-04-13T20:17:00.974Z,9.70
2023-04-13T20:19:34.661Z,9.00
2023-04-13T20:22:07.219Z,11.00
2023-04-13T20:24:39.113Z,11.20
2023-04-13T20:27:12.452Z,9.30
2023-04-13T20:29:44.377Z,9.70
2023-04-13T20:32:16.413Z,9.80
2023-04-13T20:34:48.807Z,11.10
2023-04-13T20:37:21.376Z,9.80
2023-04-13T20:39:53.819Z,10.70
2023-04-13T20:42:27.270Z,10.40
2023-04-13T20:44:59.591Z,8.90
2023-04-13T20:47:32.334Z,10.70
2023-04-13T20:50:05.747Z,9.60
2023-04-13T20:52:41.871Z,10.40
2023-04-13T20:55:13.995Z,10.20
2023-04-13T20:57:46.080Z,8.90
2023-04-13T21:00:23.599Z,9.00
2023-04-13T21:02:57.971Z,10.10
2023-04-13T21:05:30.230Z,10.50
2023-04-13T21:08:02.380Z,10.50
2023-04-13T21:10:34.363Z,10.40
2023-04-13T21:13:10.573Z,10.70
2023-04-13T21:15:42.524Z,10.40
2023-04-13T21:18:14.609Z,9.80
2023-04-13T21:20:46.534Z,9.80
2023-04-13T21:23:18.458Z,11.30
2023-04-13T21:25:50.392Z,10.60
2023-04-13T21:28:24.487Z,9.70
2023-04-13T21:30:56.521Z,10.40
2023-04-13T21:33:28.758Z,10.00
2023-04-13T21:36:51.250Z,9.30
2023-04-13T21:38:52.711Z,8.60
2023-04-13T21:41:24.941Z,9.90
2023-04-13T21:43:58.381Z,8.70
2023-04-13T21:46:30.440Z,9.40
2023-04-13T21:49:03.091Z,8.90
2023-04-13T21:51:35.286Z,8.90
2023-04-13T21:54:07.608Z,8.90
2023-04-13T21:56:40.724Z,8.80
2023-04-13T21:59:12.889Z,8.90
2023-04-13T22:01:46.002Z,8.00
2023-04-13T22:04:18.348Z,7.70
2023-04-13T22:06:50.564Z,7.70
2023-04-13T22:09:22.744Z,7.90
2023-04-13T22:11:54.890Z,8.10
2023-04-13T22:14:29.084Z,7.50
2023-04-13T22:17:00.942Z,8.10
2023-04-13T22:19:33.154Z,6.30
2023-04-13T22:22:05.069Z,8.10
2023-04-13T22:24:37.388Z,8.30
2023-04-13T22:27:13.808Z,7.70
2023-04-13T22:29:47.888Z,8.40
2023-04-13T22:32:19.949Z,7.10
2023-04-13T22:34:52.313Z,7.60
2023-04-13T22:37:24.424Z,7.70
2023-04-13T22:39:56.640Z,7.70
2023-04-13T22:42:28.693Z,8.60
2023-04-13T22:45:03.282Z,8.50
2023-04-13T22:47:35.268Z,7.60
2023-04-13T22:50:09.259Z,7.60
2023-04-13T22:52:41.253Z,8.00
2023-04-13T22:55:14.233Z,7.90
2023-04-13T22:57:47.466Z,8.10
2023-04-13T23:00:21.460Z,7.50
2023-04-13T23:02:56.252Z,6.90
2023-04-13T23:05:29.131Z,7.70
2023-04-13T23:08:01.084Z,7.70
2023-04-13T23:10:33.487Z,7.60
2023-04-13T23:13:05.843Z,7.90
2023-04-13T23:15:39.542Z,8.60
2023-04-13T23:18:11.487Z,6.50
2023-04-13T23:20:43.881Z,7.00
2023-04-13T23:23:15.958Z,7.50
2023-04-13T23:25:51.656Z,6.70
2023-04-13T23:28:26.006Z,6.60
2023-04-13T23:31:05.398Z,7.40
2023-04-13T23:33:37.832Z,6.90
2023-04-13T23:36:12.015Z,7.00
2023-04-13T23:38:44.110Z,7.00
2023-04-13T23:41:17.003Z,5.70
2023-04-13T23:43:51.664Z,6.20
2023-04-13T23:46:24.915Z,6.30
2023-04-13T23:48:56.989Z,5.70
2023-04-13T23:51:29.812Z,6.50
2023-04-13T23:54:01.779Z,6.60
2023-04-13T23:56:34.219Z,6.60
2023-04-13T23:59:06.261Z,6.20
